sensor_id;sensor_type;location;lat;lon;timestamp;P1;durP1;ratioP1;P2;durP2;ratioP2
7471;SDS011;3777;48.722;8.110;2022-12-07T00:01:24;22.87;;;17.30;;
7471;SDS011;3777;48.722;8.110;2022-12-07T00:03:55;23.63;;;16.27;;
7471;SDS011;3777;48.722;8.110;2022-12-07T00:06:29;20.57;;;16.63;;
7471;SDS011;3777;48.722;8.110;2022-12-07T00:08:56;21.97;;;15.40;;
7471;SDS011;3777;48.722;8.110;2022-12-07T00:11:23;21.43;;;16.93;;
7471;SDS011;3777;48.722;8.110;2022-12-07T00:13:51;21.63;;;16.77;;
7471;SDS011;3777;48.722;8.110;2022-12-07T00:16:19;20.60;;;15.83;;
7471;SDS011;3777;48.722;8.110;2022-12-07T00:18:48;21.97;;;16.67;;
7471;SDS011;3777;48.722;8.110;2022-12-07T00:21:17;23.47;;;17.10;;
7471;SDS011;3777;48.722;8.110;2022-12-07T00:23:45;22.13;;;15.97;;
7471;SDS011;3777;48.722;8.110;2022-12-07T00:26:15;21.43;;;16.50;;
7471;SDS011;3777;48.722;8.110;2022-12-07T00:28:45;21.83;;;16.27;;
7471;SDS011;3777;48.722;8.110;2022-12-07T00:31:13;22.20;;;16.40;;
7471;SDS011;3777;48.722;8.110;2022-12-07T00:33:41;21.93;;;16.53;;
7471;SDS011;3777;48.722;8.110;2022-12-07T00:36:09;22.03;;;17.07;;
7471;SDS011;3777;48.722;8.110;2022-12-07T00:38:39;23.70;;;17.37;;
7471;SDS011;3777;48.722;8.110;2022-12-07T00:41:07;21.33;;;16.70;;
7471;SDS011;3777;48.722;8.110;2022-12-07T00:43:38;21.93;;;16.27;;
7471;SDS011;3777;48.722;8.110;2022-12-07T00:46:06;21.80;;;16.47;;
7471;SDS011;3777;48.722;8.110;2022-12-07T00:48:33;20.67;;;16.27;;
7471;SDS011;3777;48.722;8.110;2022-12-07T00:51:00;23.30;;;17.40;;
7471;SDS011;3777;48.722;8.110;2022-12-07T00:53:28;21.40;;;16.37;;
7471;SDS011;3777;48.722;8.110;2022-12-07T00:55:56;20.37;;;15.90;;
7471;SDS011;3777;48.722;8.110;2022-12-07T00:58:23;23.10;;;16.70;;
7471;SDS011;3777;48.722;8.110;2022-12-07T01:00:50;22.33;;;16.30;;
7471;SDS011;3777;48.722;8.110;2022-12-07T01:03:17;22.63;;;16.70;;
7471;SDS011;3777;48.722;8.110;2022-12-07T01:05:50;23.37;;;15.87;;
7471;SDS011;3777;48.722;8.110;2022-12-07T01:08:18;21.17;;;15.30;;
7471;SDS011;3777;48.722;8.110;2022-12-07T01:10:46;22.90;;;17.17;;
7471;SDS011;3777;48.722;8.110;2022-12-07T01:13:15;20.80;;;15.60;;
7471;SDS011;3777;48.722;8.110;2022-12-07T01:15:42;22.20;;;17.00;;
7471;SDS011;3777;48.722;8.110;2022-12-07T01:18:10;20.23;;;15.93;;
7471;SDS011;3777;48.722;8.110;2022-12-07T01:20:37;20.63;;;15.77;;
7471;SDS011;3777;48.722;8.110;2022-12-07T01:23:04;21.47;;;16.43;;
7471;SDS011;3777;48.722;8.110;2022-12-07T01:25:31;24.93;;;17.13;;
7471;SDS011;3777;48.722;8.110;2022-12-07T01:27:58;23.17;;;16.07;;
7471;SDS011;3777;48.722;8.110;2022-12-07T01:30:26;21.90;;;16.37;;
7471;SDS011;3777;48.722;8.110;2022-12-07T01:32:54;22.43;;;16.37;;
7471;SDS011;3777;48.722;8.110;2022-12-07T01:35:21;22.67;;;16.60;;
7471;SDS011;3777;48.722;8.110;2022-12-07T01:37:48;22.30;;;16.40;;
7471;SDS011;3777;48.722;8.110;2022-12-07T01:40:15;22.60;;;16.43;;
7471;SDS011;3777;48.722;8.110;2022-12-07T01:42:42;24.83;;;16.93;;
7471;SDS011;3777;48.722;8.110;2022-12-07T01:48:04;26.33;;;16.77;;
7471;SDS011;3777;48.722;8.110;2022-12-07T01:50:33;24.23;;;17.93;;
7471;SDS011;3777;48.722;8.110;2022-12-07T01:53:01;21.67;;;16.73;;
7471;SDS011;3777;48.722;8.110;2022-12-07T01:55:30;24.70;;;18.20;;
7471;SDS011;3777;48.722;8.110;2022-12-07T01:57:58;26.27;;;17.67;;
7471;SDS011;3777;48.722;8.110;2022-12-07T02:00:25;26.73;;;18.67;;
7471;SDS011;3777;48.722;8.110;2022-12-07T02:02:55;26.57;;;18.43;;
7471;SDS011;3777;48.722;8.110;2022-12-07T02:05:27;24.47;;;18.10;;
7471;SDS011;3777;48.722;8.110;2022-12-07T02:07:56;23.73;;;18.23;;
7471;SDS011;3777;48.722;8.110;2022-12-07T02:10:24;22.67;;;17.90;;
7471;SDS011;3777;48.722;8.110;2022-12-07T02:12:54;24.43;;;17.67;;
7471;SDS011;3777;48.722;8.110;2022-12-07T02:15:25;26.13;;;18.37;;
7471;SDS011;3777;48.722;8.110;2022-12-07T02:18:00;25.53;;;18.10;;
7471;SDS011;3777;48.722;8.110;2022-12-07T02:20:33;26.47;;;19.23;;
7471;SDS011;3777;48.722;8.110;2022-12-07T02:23:12;29.13;;;19.23;;
7471;SDS011;3777;48.722;8.110;2022-12-07T02:26:06;25.70;;;18.30;;
7471;SDS011;3777;48.722;8.110;2022-12-07T02:29:12;27.30;;;18.77;;
7471;SDS011;3777;48.722;8.110;2022-12-07T02:31:45;26.40;;;18.40;;
7471;SDS011;3777;48.722;8.110;2022-12-07T02:34:19;27.63;;;17.50;;
7471;SDS011;3777;48.722;8.110;2022-12-07T02:36:52;25.10;;;18.10;;
7471;SDS011;3777;48.722;8.110;2022-12-07T02:39:25;24.30;;;17.57;;
7471;SDS011;3777;48.722;8.110;2022-12-07T02:41:58;24.00;;;17.80;;
7471;SDS011;3777;48.722;8.110;2022-12-07T02:44:34;23.07;;;17.33;;
7471;SDS011;3777;48.722;8.110;2022-12-07T02:47:02;21.53;;;15.93;;
7471;SDS011;3777;48.722;8.110;2022-12-07T02:49:32;24.60;;;17.70;;
7471;SDS011;3777;48.722;8.110;2022-12-07T02:51:59;23.90;;;17.43;;
7471;SDS011;3777;48.722;8.110;2022-12-07T02:54:26;20.77;;;16.23;;
7471;SDS011;3777;48.722;8.110;2022-12-07T02:56:56;21.30;;;15.83;;
7471;SDS011;3777;48.722;8.110;2022-12-07T02:59:36;21.97;;;16.70;;
7471;SDS011;3777;48.722;8.110;2022-12-07T03:02:15;21.67;;;15.67;;
7471;SDS011;3777;48.722;8.110;2022-12-07T03:04:52;21.93;;;16.10;;
7471;SDS011;3777;48.722;8.110;2022-12-07T03:07:28;22.53;;;17.07;;
7471;SDS011;3777;48.722;8.110;2022-12-07T03:10:01;21.30;;;16.03;;
7471;SDS011;3777;48.722;8.110;2022-12-07T03:12:35;21.93;;;16.60;;
7471;SDS011;3777;48.722;8.110;2022-12-07T03:15:10;20.97;;;15.93;;
7471;SDS011;3777;48.722;8.110;2022-12-07T03:17:40;21.83;;;16.60;;
7471;SDS011;3777;48.722;8.110;2022-12-07T03:20:11;21.07;;;16.03;;
7471;SDS011;3777;48.722;8.110;2022-12-07T03:22:41;23.53;;;16.23;;
7471;SDS011;3777;48.722;8.110;2022-12-07T03:25:10;20.03;;;16.57;;
7471;SDS011;3777;48.722;8.110;2022-12-07T03:27:42;23.70;;;17.30;;
7471;SDS011;3777;48.722;8.110;2022-12-07T03:30:18;26.93;;;16.87;;
7471;SDS011;3777;48.722;8.110;2022-12-07T03:32:48;21.50;;;16.13;;
7471;SDS011;3777;48.722;8.110;2022-12-07T03:35:20;24.43;;;15.90;;
7471;SDS011;3777;48.722;8.110;2022-12-07T03:37:52;19.87;;;15.43;;
7471;SDS011;3777;48.722;8.110;2022-12-07T03:40:23;22.50;;;16.67;;
7471;SDS011;3777;48.722;8.110;2022-12-07T03:42:54;20.90;;;16.23;;
7471;SDS011;3777;48.722;8.110;2022-12-07T03:45:38;23.63;;;16.97;;
7471;SDS011;3777;48.722;8.110;2022-12-07T03:48:07;21.73;;;16.47;;
7471;SDS011;3777;48.722;8.110;2022-12-07T03:50:46;23.10;;;17.37;;
7471;SDS011;3777;48.722;8.110;2022-12-07T03:53:18;23.70;;;17.13;;
7471;SDS011;3777;48.722;8.110;2022-12-07T03:55:49;22.00;;;15.60;;
7471;SDS011;3777;48.722;8.110;2022-12-07T03:58:19;23.07;;;16.27;;
7471;SDS011;3777;48.722;8.110;2022-12-07T04:00:49;23.77;;;16.93;;
7471;SDS011;3777;48.722;8.110;2022-12-07T04:03:17;19.93;;;16.07;;
7471;SDS011;3777;48.722;8.110;2022-12-07T04:05:44;21.40;;;16.00;;
7471;SDS011;3777;48.722;8.110;2022-12-07T04:08:11;22.17;;;16.47;;
7471;SDS011;3777;48.722;8.110;2022-12-07T04:10:38;20.50;;;16.10;;
7471;SDS011;3777;48.722;8.110;2022-12-07T04:13:05;24.50;;;16.83;;
7471;SDS011;3777;48.722;8.110;2022-12-07T04:15:32;20.27;;;14.93;;
7471;SDS011;3777;48.722;8.110;2022-12-07T04:18:00;20.27;;;15.53;;
7471;SDS011;3777;48.722;8.110;2022-12-07T04:20:27;23.30;;;15.53;;
7471;SDS011;3777;48.722;8.110;2022-12-07T04:22:54;19.70;;;14.93;;
7471;SDS011;3777;48.722;8.110;2022-12-07T04:25:21;20.40;;;15.77;;
7471;SDS011;3777;48.722;8.110;2022-12-07T04:27:48;19.57;;;15.00;;
7471;SDS011;3777;48.722;8.110;2022-12-07T04:30:15;20.13;;;15.77;;
7471;SDS011;3777;48.722;8.110;2022-12-07T04:32:42;20.80;;;15.63;;
7471;SDS011;3777;48.722;8.110;2022-12-07T04:35:11;22.23;;;16.00;;
7471;SDS011;3777;48.722;8.110;2022-12-07T04:37:38;21.63;;;15.93;;
7471;SDS011;3777;48.722;8.110;2022-12-07T04:40:05;21.33;;;15.97;;
7471;SDS011;3777;48.722;8.110;2022-12-07T04:42:33;21.93;;;15.83;;
7471;SDS011;3777;48.722;8.110;2022-12-07T04:45:00;22.07;;;16.20;;
7471;SDS011;3777;48.722;8.110;2022-12-07T04:47:27;23.00;;;16.70;;
7471;SDS011;3777;48.722;8.110;2022-12-07T04:49:54;22.63;;;16.77;;
7471;SDS011;3777;48.722;8.110;2022-12-07T04:52:22;20.83;;;16.00;;
7471;SDS011;3777;48.722;8.110;2022-12-07T04:54:49;23.80;;;17.23;;
7471;SDS011;3777;48.722;8.110;2022-12-07T04:57:16;21.20;;;16.60;;
7471;SDS011;3777;48.722;8.110;2022-12-07T04:59:43;22.80;;;16.20;;
7471;SDS011;3777;48.722;8.110;2022-12-07T05:02:10;21.43;;;15.80;;
7471;SDS011;3777;48.722;8.110;2022-12-07T05:04:37;24.67;;;16.53;;
7471;SDS011;3777;48.722;8.110;2022-12-07T05:07:04;21.10;;;15.20;;
7471;SDS011;3777;48.722;8.110;2022-12-07T05:09:32;21.77;;;16.07;;
7471;SDS011;3777;48.722;8.110;2022-12-07T05:11:59;19.70;;;14.50;;
7471;SDS011;3777;48.722;8.110;2022-12-07T05:14:26;21.27;;;15.30;;
7471;SDS011;3777;48.722;8.110;2022-12-07T05:16:53;22.17;;;15.40;;
7471;SDS011;3777;48.722;8.110;2022-12-07T05:19:20;21.50;;;16.23;;
7471;SDS011;3777;48.722;8.110;2022-12-07T05:21:47;22.07;;;17.03;;
7471;SDS011;3777;48.722;8.110;2022-12-07T05:24:15;23.57;;;16.90;;
7471;SDS011;3777;48.722;8.110;2022-12-07T05:26:44;21.90;;;17.23;;
7471;SDS011;3777;48.722;8.110;2022-12-07T05:29:12;22.27;;;16.70;;
7471;SDS011;3777;48.722;8.110;2022-12-07T05:31:39;22.37;;;15.73;;
7471;SDS011;3777;48.722;8.110;2022-12-07T05:34:06;22.70;;;16.60;;
7471;SDS011;3777;48.722;8.110;2022-12-07T05:36:33;21.50;;;16.03;;
7471;SDS011;3777;48.722;8.110;2022-12-07T05:39:00;21.53;;;15.70;;
7471;SDS011;3777;48.722;8.110;2022-12-07T05:41:27;20.97;;;15.57;;
7471;SDS011;3777;48.722;8.110;2022-12-07T05:44:13;21.20;;;15.30;;
7471;SDS011;3777;48.722;8.110;2022-12-07T05:46:40;21.20;;;15.97;;
7471;SDS011;3777;48.722;8.110;2022-12-07T05:49:07;22.27;;;15.27;;
7471;SDS011;3777;48.722;8.110;2022-12-07T05:51:34;22.70;;;15.63;;
7471;SDS011;3777;48.722;8.110;2022-12-07T05:54:01;22.10;;;15.77;;
7471;SDS011;3777;48.722;8.110;2022-12-07T05:56:28;20.53;;;15.60;;
7471;SDS011;3777;48.722;8.110;2022-12-07T05:58:55;21.27;;;15.10;;
7471;SDS011;3777;48.722;8.110;2022-12-07T06:01:41;19.90;;;15.27;;
7471;SDS011;3777;48.722;8.110;2022-12-07T06:04:08;21.77;;;15.90;;
7471;SDS011;3777;48.722;8.110;2022-12-07T06:06:35;20.37;;;15.33;;
7471;SDS011;3777;48.722;8.110;2022-12-07T06:09:02;21.03;;;14.90;;
7471;SDS011;3777;48.722;8.110;2022-12-07T06:11:29;21.73;;;16.00;;
7471;SDS011;3777;48.722;8.110;2022-12-07T06:14:14;21.37;;;15.47;;
7471;SDS011;3777;48.722;8.110;2022-12-07T06:16:42;20.57;;;15.30;;
7471;SDS011;3777;48.722;8.110;2022-12-07T06:19:09;19.23;;;14.27;;
7471;SDS011;3777;48.722;8.110;2022-12-07T06:21:36;20.70;;;15.97;;
7471;SDS011;3777;48.722;8.110;2022-12-07T06:24:03;19.50;;;15.40;;
7471;SDS011;3777;48.722;8.110;2022-12-07T06:26:31;20.33;;;15.57;;
7471;SDS011;3777;48.722;8.110;2022-12-07T06:28:58;22.00;;;14.63;;
7471;SDS011;3777;48.722;8.110;2022-12-07T06:31:25;20.10;;;14.47;;
7471;SDS011;3777;48.722;8.110;2022-12-07T06:33:57;21.03;;;14.73;;
7471;SDS011;3777;48.722;8.110;2022-12-07T06:36:24;19.30;;;14.90;;
7471;SDS011;3777;48.722;8.110;2022-12-07T06:38:51;20.33;;;15.73;;
7471;SDS011;3777;48.722;8.110;2022-12-07T06:41:18;21.80;;;14.57;;
7471;SDS011;3777;48.722;8.110;2022-12-07T06:43:46;18.40;;;13.70;;
7471;SDS011;3777;48.722;8.110;2022-12-07T06:46:13;19.27;;;14.63;;
7471;SDS011;3777;48.722;8.110;2022-12-07T06:48:40;18.23;;;14.23;;
7471;SDS011;3777;48.722;8.110;2022-12-07T06:51:09;20.00;;;14.17;;
7471;SDS011;3777;48.722;8.110;2022-12-07T06:53:36;18.80;;;13.63;;
7471;SDS011;3777;48.722;8.110;2022-12-07T06:56:04;19.10;;;14.50;;
7471;SDS011;3777;48.722;8.110;2022-12-07T06:58:31;18.50;;;14.33;;
7471;SDS011;3777;48.722;8.110;2022-12-07T07:00:58;18.73;;;13.70;;
7471;SDS011;3777;48.722;8.110;2022-12-07T07:03:25;17.87;;;14.00;;
7471;SDS011;3777;48.722;8.110;2022-12-07T07:05:52;19.77;;;14.23;;
7471;SDS011;3777;48.722;8.110;2022-12-07T07:08:20;19.50;;;13.97;;
7471;SDS011;3777;48.722;8.110;2022-12-07T07:10:47;19.43;;;13.77;;
7471;SDS011;3777;48.722;8.110;2022-12-07T07:13:14;17.97;;;13.13;;
7471;SDS011;3777;48.722;8.110;2022-12-07T07:15:41;18.47;;;13.70;;
7471;SDS011;3777;48.722;8.110;2022-12-07T07:18:08;18.90;;;12.70;;
7471;SDS011;3777;48.722;8.110;2022-12-07T07:20:35;18.67;;;13.23;;
7471;SDS011;3777;48.722;8.110;2022-12-07T07:23:03;18.37;;;13.63;;
7471;SDS011;3777;48.722;8.110;2022-12-07T07:25:32;20.63;;;14.30;;
7471;SDS011;3777;48.722;8.110;2022-12-07T07:27:59;17.93;;;13.37;;
7471;SDS011;3777;48.722;8.110;2022-12-07T07:30:26;16.97;;;12.37;;
7471;SDS011;3777;48.722;8.110;2022-12-07T07:32:55;16.50;;;12.90;;
7471;SDS011;3777;48.722;8.110;2022-12-07T07:35:23;17.57;;;12.47;;
7471;SDS011;3777;48.722;8.110;2022-12-07T07:37:50;16.07;;;12.43;;
7471;SDS011;3777;48.722;8.110;2022-12-07T07:40:17;18.10;;;12.83;;
7471;SDS011;3777;48.722;8.110;2022-12-07T07:42:47;20.77;;;17.53;;
7471;SDS011;3777;48.722;8.110;2022-12-07T07:45:15;13.83;;;11.03;;
7471;SDS011;3777;48.722;8.110;2022-12-07T07:47:42;16.23;;;12.27;;
7471;SDS011;3777;48.722;8.110;2022-12-07T07:50:09;15.57;;;11.63;;
7471;SDS011;3777;48.722;8.110;2022-12-07T07:52:36;15.40;;;11.87;;
7471;SDS011;3777;48.722;8.110;2022-12-07T07:55:04;15.10;;;11.53;;
7471;SDS011;3777;48.722;8.110;2022-12-07T07:57:33;13.13;;;11.20;;
7471;SDS011;3777;48.722;8.110;2022-12-07T08:00:02;14.27;;;11.00;;
7471;SDS011;3777;48.722;8.110;2022-12-07T08:02:29;14.13;;;10.73;;
7471;SDS011;3777;48.722;8.110;2022-12-07T08:04:56;14.43;;;10.97;;
7471;SDS011;3777;48.722;8.110;2022-12-07T08:07:23;17.23;;;11.30;;
7471;SDS011;3777;48.722;8.110;2022-12-07T08:09:50;15.37;;;11.20;;
7471;SDS011;3777;48.722;8.110;2022-12-07T08:12:17;15.37;;;10.90;;
7471;SDS011;3777;48.722;8.110;2022-12-07T08:14:44;14.67;;;10.80;;
7471;SDS011;3777;48.722;8.110;2022-12-07T08:17:13;14.83;;;10.60;;
7471;SDS011;3777;48.722;8.110;2022-12-07T08:19:40;13.73;;;10.47;;
7471;SDS011;3777;48.722;8.110;2022-12-07T08:22:07;14.07;;;11.13;;
7471;SDS011;3777;48.722;8.110;2022-12-07T08:24:34;12.97;;;10.57;;
7471;SDS011;3777;48.722;8.110;2022-12-07T08:27:01;12.57;;;10.23;;
7471;SDS011;3777;48.722;8.110;2022-12-07T08:29:28;13.87;;;10.53;;
7471;SDS011;3777;48.722;8.110;2022-12-07T08:31:55;22.20;;;19.80;;
7471;SDS011;3777;48.722;8.110;2022-12-07T08:34:23;15.53;;;12.70;;
7471;SDS011;3777;48.722;8.110;2022-12-07T08:36:50;13.73;;;11.40;;
7471;SDS011;3777;48.722;8.110;2022-12-07T08:39:17;15.27;;;10.63;;
7471;SDS011;3777;48.722;8.110;2022-12-07T08:41:44;15.17;;;10.53;;
7471;SDS011;3777;48.722;8.110;2022-12-07T08:44:11;14.37;;;10.63;;
7471;SDS011;3777;48.722;8.110;2022-12-07T08:46:38;14.20;;;10.30;;
7471;SDS011;3777;48.722;8.110;2022-12-07T08:49:11;14.90;;;9.60;;
7471;SDS011;3777;48.722;8.110;2022-12-07T08:51:41;11.97;;;9.20;;
7471;SDS011;3777;48.722;8.110;2022-12-07T08:54:09;12.03;;;9.83;;
7471;SDS011;3777;48.722;8.110;2022-12-07T08:56:37;12.03;;;9.60;;
7471;SDS011;3777;48.722;8.110;2022-12-07T08:59:05;14.07;;;9.60;;
7471;SDS011;3777;48.722;8.110;2022-12-07T09:01:32;14.53;;;10.50;;
7471;SDS011;3777;48.722;8.110;2022-12-07T09:03:59;28.60;;;21.77;;
7471;SDS011;3777;48.722;8.110;2022-12-07T09:06:26;34.90;;;22.03;;
7471;SDS011;3777;48.722;8.110;2022-12-07T09:08:56;57.03;;;36.87;;
7471;SDS011;3777;48.722;8.110;2022-12-07T09:11:25;34.50;;;25.87;;
7471;SDS011;3777;48.722;8.110;2022-12-07T09:13:52;41.30;;;33.73;;
7471;SDS011;3777;48.722;8.110;2022-12-07T09:16:19;12.27;;;10.03;;
7471;SDS011;3777;48.722;8.110;2022-12-07T09:18:46;13.20;;;10.10;;
7471;SDS011;3777;48.722;8.110;2022-12-07T09:21:13;11.70;;;8.70;;
7471;SDS011;3777;48.722;8.110;2022-12-07T09:23:40;12.03;;;8.90;;
7471;SDS011;3777;48.722;8.110;2022-12-07T09:26:09;10.83;;;8.63;;
7471;SDS011;3777;48.722;8.110;2022-12-07T09:28:36;10.20;;;7.57;;
7471;SDS011;3777;48.722;8.110;2022-12-07T09:31:04;10.03;;;7.27;;
7471;SDS011;3777;48.722;8.110;2022-12-07T09:33:31;11.83;;;7.60;;
7471;SDS011;3777;48.722;8.110;2022-12-07T09:35:58;9.87;;;7.80;;
7471;SDS011;3777;48.722;8.110;2022-12-07T09:38:25;9.20;;;7.70;;
7471;SDS011;3777;48.722;8.110;2022-12-07T09:40:53;9.70;;;7.73;;
7471;SDS011;3777;48.722;8.110;2022-12-07T09:43:23;10.27;;;8.00;;
7471;SDS011;3777;48.722;8.110;2022-12-07T09:45:51;11.33;;;7.63;;
7471;SDS011;3777;48.722;8.110;2022-12-07T09:48:21;9.37;;;7.63;;
7471;SDS011;3777;48.722;8.110;2022-12-07T09:50:51;12.23;;;8.03;;
7471;SDS011;3777;48.722;8.110;2022-12-07T09:53:23;9.47;;;7.57;;
7471;SDS011;3777;48.722;8.110;2022-12-07T09:55:53;12.13;;;8.20;;
7471;SDS011;3777;48.722;8.110;2022-12-07T09:58:21;9.30;;;7.50;;
7471;SDS011;3777;48.722;8.110;2022-12-07T10:00:52;9.57;;;7.50;;
7471;SDS011;3777;48.722;8.110;2022-12-07T10:03:21;10.00;;;7.60;;
7471;SDS011;3777;48.722;8.110;2022-12-07T10:05:49;9.60;;;7.67;;
7471;SDS011;3777;48.722;8.110;2022-12-07T10:08:18;9.47;;;7.43;;
7471;SDS011;3777;48.722;8.110;2022-12-07T10:10:46;8.60;;;7.47;;
7471;SDS011;3777;48.722;8.110;2022-12-07T10:13:18;10.13;;;7.47;;
7471;SDS011;3777;48.722;8.110;2022-12-07T10:15:49;10.87;;;8.00;;
7471;SDS011;3777;48.722;8.110;2022-12-07T10:18:26;10.43;;;7.97;;
7471;SDS011;3777;48.722;8.110;2022-12-07T10:21:02;11.80;;;9.07;;
7471;SDS011;3777;48.722;8.110;2022-12-07T10:23:33;11.83;;;7.87;;
7471;SDS011;3777;48.722;8.110;2022-12-07T10:26:12;11.37;;;8.23;;
7471;SDS011;3777;48.722;8.110;2022-12-07T10:28:47;13.30;;;8.00;;
7471;SDS011;3777;48.722;8.110;2022-12-07T10:31:17;9.53;;;7.63;;
7471;SDS011;3777;48.722;8.110;2022-12-07T10:33:51;9.93;;;7.70;;
7471;SDS011;3777;48.722;8.110;2022-12-07T10:36:21;10.23;;;7.90;;
7471;SDS011;3777;48.722;8.110;2022-12-07T10:38:50;9.43;;;7.60;;
7471;SDS011;3777;48.722;8.110;2022-12-07T10:41:18;10.33;;;7.77;;
7471;SDS011;3777;48.722;8.110;2022-12-07T10:43:46;11.77;;;8.77;;
7471;SDS011;3777;48.722;8.110;2022-12-07T10:46:23;19.97;;;11.80;;
7471;SDS011;3777;48.722;8.110;2022-12-07T10:49:18;14.17;;;10.00;;
7471;SDS011;3777;48.722;8.110;2022-12-07T10:52:16;10.13;;;7.73;;
7471;SDS011;3777;48.722;8.110;2022-12-07T10:54:51;9.20;;;7.37;;
7471;SDS011;3777;48.722;8.110;2022-12-07T10:57:32;10.17;;;8.20;;
7471;SDS011;3777;48.722;8.110;2022-12-07T11:00:13;14.93;;;9.17;;
7471;SDS011;3777;48.722;8.110;2022-12-07T11:02:52;7.90;;;6.53;;
7471;SDS011;3777;48.722;8.110;2022-12-07T11:05:35;9.50;;;7.80;;
7471;SDS011;3777;48.722;8.110;2022-12-07T11:08:13;8.73;;;6.93;;
7471;SDS011;3777;48.722;8.110;2022-12-07T11:10:48;9.17;;;7.10;;
7471;SDS011;3777;48.722;8.110;2022-12-07T11:13:25;9.60;;;7.40;;
7471;SDS011;3777;48.722;8.110;2022-12-07T11:16:00;10.33;;;7.57;;
7471;SDS011;3777;48.722;8.110;2022-12-07T11:18:40;9.83;;;7.27;;
7471;SDS011;3777;48.722;8.110;2022-12-07T11:21:17;11.87;;;8.63;;
7471;SDS011;3777;48.722;8.110;2022-12-07T11:23:53;9.30;;;6.90;;
7471;SDS011;3777;48.722;8.110;2022-12-07T11:26:32;8.87;;;7.03;;
7471;SDS011;3777;48.722;8.110;2022-12-07T11:29:25;9.67;;;6.87;;
7471;SDS011;3777;48.722;8.110;2022-12-07T11:32:04;9.63;;;7.23;;
7471;SDS011;3777;48.722;8.110;2022-12-07T11:34:44;10.50;;;7.63;;
7471;SDS011;3777;48.722;8.110;2022-12-07T11:37:21;11.80;;;7.97;;
7471;SDS011;3777;48.722;8.110;2022-12-07T11:39:54;11.20;;;7.43;;
7471;SDS011;3777;48.722;8.110;2022-12-07T11:42:27;8.67;;;6.87;;
7471;SDS011;3777;48.722;8.110;2022-12-07T11:44:57;10.57;;;8.13;;
7471;SDS011;3777;48.722;8.110;2022-12-07T11:47:28;10.73;;;7.93;;
7471;SDS011;3777;48.722;8.110;2022-12-07T11:50:05;10.00;;;7.50;;
7471;SDS011;3777;48.722;8.110;2022-12-07T11:52:43;9.53;;;7.87;;
7471;SDS011;3777;48.722;8.110;2022-12-07T11:55:17;9.87;;;7.70;;
7471;SDS011;3777;48.722;8.110;2022-12-07T11:57:49;10.33;;;7.17;;
7471;SDS011;3777;48.722;8.110;2022-12-07T12:00:21;9.83;;;8.13;;
7471;SDS011;3777;48.722;8.110;2022-12-07T12:02:49;9.93;;;7.50;;
7471;SDS011;3777;48.722;8.110;2022-12-07T12:05:22;9.50;;;7.50;;
7471;SDS011;3777;48.722;8.110;2022-12-07T12:07:52;17.57;;;10.90;;
7471;SDS011;3777;48.722;8.110;2022-12-07T12:10:28;17.33;;;11.60;;
7471;SDS011;3777;48.722;8.110;2022-12-07T12:13:13;13.07;;;8.60;;
7471;SDS011;3777;48.722;8.110;2022-12-07T12:16:04;10.43;;;7.60;;
7471;SDS011;3777;48.722;8.110;2022-12-07T12:18:46;12.43;;;8.27;;
7471;SDS011;3777;48.722;8.110;2022-12-07T12:21:35;11.20;;;8.13;;
7471;SDS011;3777;48.722;8.110;2022-12-07T12:24:04;11.37;;;8.17;;
7471;SDS011;3777;48.722;8.110;2022-12-07T12:26:38;10.67;;;7.33;;
7471;SDS011;3777;48.722;8.110;2022-12-07T12:29:19;10.20;;;7.53;;
7471;SDS011;3777;48.722;8.110;2022-12-07T12:32:04;9.43;;;7.67;;
7471;SDS011;3777;48.722;8.110;2022-12-07T12:34:37;9.57;;;7.50;;
7471;SDS011;3777;48.722;8.110;2022-12-07T12:43:38;11.00;;;7.77;;
7471;SDS011;3777;48.722;8.110;2022-12-07T12:55:16;8.33;;;7.27;;
7471;SDS011;3777;48.722;8.110;2022-12-07T12:57:46;12.63;;;8.00;;
7471;SDS011;3777;48.722;8.110;2022-12-07T13:00:34;11.40;;;7.37;;
7471;SDS011;3777;48.722;8.110;2022-12-07T13:03:01;9.40;;;7.53;;
7471;SDS011;3777;48.722;8.110;2022-12-07T13:05:28;10.93;;;8.47;;
7471;SDS011;3777;48.722;8.110;2022-12-07T13:07:58;10.53;;;8.40;;
7471;SDS011;3777;48.722;8.110;2022-12-07T13:10:32;11.07;;;8.27;;
7471;SDS011;3777;48.722;8.110;2022-12-07T13:13:03;11.17;;;8.63;;
7471;SDS011;3777;48.722;8.110;2022-12-07T13:15:51;9.63;;;7.73;;
7471;SDS011;3777;48.722;8.110;2022-12-07T13:18:23;10.00;;;8.27;;
7471;SDS011;3777;48.722;8.110;2022-12-07T13:20:55;11.00;;;7.77;;
7471;SDS011;3777;48.722;8.110;2022-12-07T13:23:25;12.37;;;9.33;;
7471;SDS011;3777;48.722;8.110;2022-12-07T13:25:59;11.23;;;9.10;;
7471;SDS011;3777;48.722;8.110;2022-12-07T13:28:35;10.63;;;8.13;;
7471;SDS011;3777;48.722;8.110;2022-12-07T13:31:15;10.50;;;8.00;;
7471;SDS011;3777;48.722;8.110;2022-12-07T13:33:47;12.00;;;8.90;;
7471;SDS011;3777;48.722;8.110;2022-12-07T13:36:17;12.87;;;8.70;;
7471;SDS011;3777;48.722;8.110;2022-12-07T13:38:51;11.50;;;9.30;;
7471;SDS011;3777;48.722;8.110;2022-12-07T13:41:22;12.47;;;9.00;;
7471;SDS011;3777;48.722;8.110;2022-12-07T13:43:51;11.30;;;9.30;;
7471;SDS011;3777;48.722;8.110;2022-12-07T13:46:49;13.27;;;9.30;;
7471;SDS011;3777;48.722;8.110;2022-12-07T13:49:21;13.83;;;9.70;;
7471;SDS011;3777;48.722;8.110;2022-12-07T13:51:49;11.93;;;9.90;;
7471;SDS011;3777;48.722;8.110;2022-12-07T13:54:16;13.83;;;9.40;;
7471;SDS011;3777;48.722;8.110;2022-12-07T13:56:47;13.73;;;10.80;;
7471;SDS011;3777;48.722;8.110;2022-12-07T13:59:16;12.90;;;9.90;;
7471;SDS011;3777;48.722;8.110;2022-12-07T14:01:46;13.47;;;10.17;;
7471;SDS011;3777;48.722;8.110;2022-12-07T14:04:18;12.80;;;10.27;;
7471;SDS011;3777;48.722;8.110;2022-12-07T14:06:52;12.60;;;9.60;;
7471;SDS011;3777;48.722;8.110;2022-12-07T14:09:20;14.77;;;10.47;;
7471;SDS011;3777;48.722;8.110;2022-12-07T14:11:50;14.03;;;10.37;;
7471;SDS011;3777;48.722;8.110;2022-12-07T14:14:20;13.73;;;10.47;;
7471;SDS011;3777;48.722;8.110;2022-12-07T14:16:58;13.60;;;10.17;;
7471;SDS011;3777;48.722;8.110;2022-12-07T14:19:46;14.67;;;10.60;;
7471;SDS011;3777;48.722;8.110;2022-12-07T14:22:20;12.50;;;9.80;;
7471;SDS011;3777;48.722;8.110;2022-12-07T14:24:59;15.13;;;10.40;;
7471;SDS011;3777;48.722;8.110;2022-12-07T14:27:48;12.83;;;10.17;;
7471;SDS011;3777;48.722;8.110;2022-12-07T14:30:21;14.57;;;10.87;;
7471;SDS011;3777;48.722;8.110;2022-12-07T14:32:50;22.93;;;14.93;;
7471;SDS011;3777;48.722;8.110;2022-12-07T14:35:19;18.27;;;13.07;;
7471;SDS011;3777;48.722;8.110;2022-12-07T14:37:47;18.00;;;12.27;;
7471;SDS011;3777;48.722;8.110;2022-12-07T14:40:16;18.07;;;11.90;;
7471;SDS011;3777;48.722;8.110;2022-12-07T14:42:44;13.90;;;10.37;;
7471;SDS011;3777;48.722;8.110;2022-12-07T14:45:16;14.33;;;10.50;;
7471;SDS011;3777;48.722;8.110;2022-12-07T14:47:44;14.87;;;11.10;;
7471;SDS011;3777;48.722;8.110;2022-12-07T14:50:12;15.23;;;10.83;;
7471;SDS011;3777;48.722;8.110;2022-12-07T14:52:42;15.67;;;10.60;;
7471;SDS011;3777;48.722;8.110;2022-12-07T14:55:12;16.63;;;11.03;;
7471;SDS011;3777;48.722;8.110;2022-12-07T14:57:41;13.90;;;10.60;;
7471;SDS011;3777;48.722;8.110;2022-12-07T15:00:09;14.93;;;10.50;;
7471;SDS011;3777;48.722;8.110;2022-12-07T15:02:42;14.80;;;10.53;;
7471;SDS011;3777;48.722;8.110;2022-12-07T15:05:09;15.00;;;11.50;;
7471;SDS011;3777;48.722;8.110;2022-12-07T15:07:36;14.43;;;11.00;;
7471;SDS011;3777;48.722;8.110;2022-12-07T15:10:04;14.87;;;10.97;;
7471;SDS011;3777;48.722;8.110;2022-12-07T15:12:32;16.27;;;11.97;;
7471;SDS011;3777;48.722;8.110;2022-12-07T15:14:59;17.97;;;12.43;;
7471;SDS011;3777;48.722;8.110;2022-12-07T15:17:26;18.33;;;14.07;;
7471;SDS011;3777;48.722;8.110;2022-12-07T15:19:55;19.97;;;14.40;;
7471;SDS011;3777;48.722;8.110;2022-12-07T15:22:22;17.50;;;12.97;;
7471;SDS011;3777;48.722;8.110;2022-12-07T15:24:49;16.60;;;12.03;;
7471;SDS011;3777;48.722;8.110;2022-12-07T15:27:16;17.93;;;12.13;;
7471;SDS011;3777;48.722;8.110;2022-12-07T15:29:43;17.13;;;12.40;;
7471;SDS011;3777;48.722;8.110;2022-12-07T15:32:09;16.20;;;12.23;;